sensor_id;sensor_type;location;lat;lon;timestamp;temperature;humidity
1455;DHT22;721;48.168;12.818;2023-03-25T00:01:43;9.60;41.80
1455;DHT22;721;48.168;12.818;2023-03-25T00:04:10;9.60;42.20
1455;DHT22;721;48.168;12.818;2023-03-25T00:06:36;9.60;41.60
1455;DHT22;721;48.168;12.818;2023-03-25T00:09:05;9.50;40.10
1455;DHT22;721;48.168;12.818;2023-03-25T00:11:31;9.50;41.00
1455;DHT22;721;48.168;12.818;2023-03-25T00:13:58;9.60;40.60
1455;DHT22;721;48.168;12.818;2023-03-25T00:16:25;9.50;40.40
1455;DHT22;721;48.168;12.818;2023-03-25T00:18:52;9.60;40.30
1455;DHT22;721;48.168;12.818;2023-03-25T00:21:19;9.60;40.00
1455;DHT22;721;48.168;12.818;2023-03-25T00:23:47;9.60;40.00
1455;DHT22;721;48.168;12.818;2023-03-25T00:26:15;9.50;40.30
1455;DHT22;721;48.168;12.818;2023-03-25T00:28:42;9.50;40.90
1455;DHT22;721;48.168;12.818;2023-03-25T00:31:11;9.50;41.60
1455;DHT22;721;48.168;12.818;2023-03-25T00:33:39;9.50;40.90
1455;DHT22;721;48.168;12.818;2023-03-25T00:36:08;9.50;41.40
1455;DHT22;721;48.168;12.818;2023-03-25T00:38:37;9.50;41.40
1455;DHT22;721;48.168;12.818;2023-03-25T00:41:11;9.60;41.00
1455;DHT22;721;48.168;12.818;2023-03-25T00:43:39;9.50;40.90
1455;DHT22;721;48.168;12.818;2023-03-25T00:46:06;9.60;40.10
1455;DHT22;721;48.168;12.818;2023-03-25T00:48:33;9.60;40.10
1455;DHT22;721;48.168;12.818;2023-03-25T00:51:00;9.50;40.90
1455;DHT22;721;48.168;12.818;2023-03-25T00:53:32;9.50;41.40
1455;DHT22;721;48.168;12.818;2023-03-25T00:55:59;9.40;41.70
1455;DHT22;721;48.168;12.818;2023-03-25T00:58:27;9.40;42.10
1455;DHT22;721;48.168;12.818;2023-03-25T01:00:55;9.40;41.80
1455;DHT22;721;48.168;12.818;2023-03-25T01:03:22;9.40;41.70
1455;DHT22;721;48.168;12.818;2023-03-25T01:05:49;9.30;40.70
1455;DHT22;721;48.168;12.818;2023-03-25T01:08:19;9.30;40.40
1455;DHT22;721;48.168;12.818;2023-03-25T01:10:50;9.30;40.80
1455;DHT22;721;48.168;12.818;2023-03-25T01:13:17;9.20;40.60
1455;DHT22;721;48.168;12.818;2023-03-25T01:15:44;9.20;40.70
1455;DHT22;721;48.168;12.818;2023-03-25T01:18:12;9.20;39.60
1455;DHT22;721;48.168;12.818;2023-03-25T01:20:39;9.20;39.60
1455;DHT22;721;48.168;12.818;2023-03-25T01:23:06;9.10;39.20
1455;DHT22;721;48.168;12.818;2023-03-25T01:25:33;9.10;39.20
1455;DHT22;721;48.168;12.818;2023-03-25T01:28:00;9.10;39.10
1455;DHT22;721;48.168;12.818;2023-03-25T01:30:28;9.10;37.70
1455;DHT22;721;48.168;12.818;2023-03-25T01:32:54;9.00;36.20
1455;DHT22;721;48.168;12.818;2023-03-25T01:35:23;9.00;36.50
1455;DHT22;721;48.168;12.818;2023-03-25T01:37:49;9.00;36.50
1455;DHT22;721;48.168;12.818;2023-03-25T01:40:22;9.00;36.60
1455;DHT22;721;48.168;12.818;2023-03-25T01:42:49;9.00;35.60
1455;DHT22;721;48.168;12.818;2023-03-25T01:45:23;8.90;35.60
1455;DHT22;721;48.168;12.818;2023-03-25T01:47:58;8.90;35.50
1455;DHT22;721;48.168;12.818;2023-03-25T01:50:29;8.90;35.50
1455;DHT22;721;48.168;12.818;2023-03-25T01:52:57;9.00;34.40
1455;DHT22;721;48.168;12.818;2023-03-25T01:55:26;9.00;33.00
1455;DHT22;721;48.168;12.818;2023-03-25T01:57:55;9.00;33.00
1455;DHT22;721;48.168;12.818;2023-03-25T02:00:24;8.90;33.50
1455;DHT22;721;48.168;12.818;2023-03-25T02:02:52;8.90;32.50
1455;DHT22;721;48.168;12.818;2023-03-25T02:05:26;8.90;31.80
1455;DHT22;721;48.168;12.818;2023-03-25T02:07:57;8.80;32.40
1455;DHT22;721;48.168;12.818;2023-03-25T02:10:24;8.80;32.00
1455;DHT22;721;48.168;12.818;2023-03-25T02:12:51;8.80;31.60
1455;DHT22;721;48.168;12.818;2023-03-25T02:15:18;8.70;31.20
1455;DHT22;721;48.168;12.818;2023-03-25T02:18:09;8.70;31.20
1455;DHT22;721;48.168;12.818;2023-03-25T02:27:21;8.80;30.40
1455;DHT22;721;48.168;12.818;2023-03-25T02:33:10;8.80;30.40
1455;DHT22;721;48.168;12.818;2023-03-25T02:35:51;8.80;30.10
1455;DHT22;721;48.168;12.818;2023-03-25T02:38:29;8.80;29.90
1455;DHT22;721;48.168;12.818;2023-03-25T02:41:00;8.80;29.20
1455;DHT22;721;48.168;12.818;2023-03-25T02:43:31;8.90;29.40
1455;DHT22;721;48.168;12.818;2023-03-25T02:46:02;8.80;28.60
1455;DHT22;721;48.168;12.818;2023-03-25T02:48:36;8.80;28.00
1455;DHT22;721;48.168;12.818;2023-03-25T02:51:07;8.70;27.60
1455;DHT22;721;48.168;12.818;2023-03-25T02:53:38;8.70;27.60
1455;DHT22;721;48.168;12.818;2023-03-25T02:56:08;8.80;27.60
1455;DHT22;721;48.168;12.818;2023-03-25T02:58:38;8.80;26.90
1455;DHT22;721;48.168;12.818;2023-03-25T03:01:06;8.80;26.60
1455;DHT22;721;48.168;12.818;2023-03-25T03:03:34;8.80;27.10
1455;DHT22;721;48.168;12.818;2023-03-25T03:06:03;8.70;27.10
1455;DHT22;721;48.168;12.818;2023-03-25T03:08:45;8.70;26.90
1455;DHT22;721;48.168;12.818;2023-03-25T03:11:18;8.70;26.50
1455;DHT22;721;48.168;12.818;2023-03-25T03:13:59;8.80;27.10
1455;DHT22;721;48.168;12.818;2023-03-25T03:16:34;8.80;26.10
1455;DHT22;721;48.168;12.818;2023-03-25T03:19:13;8.70;26.00
1455;DHT22;721;48.168;12.818;2023-03-25T03:21:53;8.80;26.20
1455;DHT22;721;48.168;12.818;2023-03-25T03:24:26;8.80;25.20
1455;DHT22;721;48.168;12.818;2023-03-25T03:26:58;8.80;25.90
1455;DHT22;721;48.168;12.818;2023-03-25T03:29:33;8.80;25.90
1455;DHT22;721;48.168;12.818;2023-03-25T03:32:06;8.90;25.90
1455;DHT22;721;48.168;12.818;2023-03-25T03:34:37;8.80;25.60
1455;DHT22;721;48.168;12.818;2023-03-25T03:37:10;8.80;24.30
1455;DHT22;721;48.168;12.818;2023-03-25T03:39:41;8.90;25.10
1455;DHT22;721;48.168;12.818;2023-03-25T03:42:13;8.80;25.40
1455;DHT22;721;48.168;12.818;2023-03-25T03:44:45;8.80;25.90
1455;DHT22;721;48.168;12.818;2023-03-25T03:47:17;8.80;25.60
1455;DHT22;721;48.168;12.818;2023-03-25T03:49:51;8.80;24.10
1455;DHT22;721;48.168;12.818;2023-03-25T03:52:22;8.90;25.20
1455;DHT22;721;48.168;12.818;2023-03-25T03:54:55;9.00;24.50
1455;DHT22;721;48.168;12.818;2023-03-25T03:57:26;9.10;23.30
1455;DHT22;721;48.168;12.818;2023-03-25T03:59:58;9.10;22.90
1455;DHT22;721;48.168;12.818;2023-03-25T04:02:33;9.10;22.50
1455;DHT22;721;48.168;12.818;2023-03-25T04:05:03;9.00;22.50
1455;DHT22;721;48.168;12.818;2023-03-25T04:07:34;8.90;22.70
1455;DHT22;721;48.168;12.818;2023-03-25T04:10:09;8.90;23.30
1455;DHT22;721;48.168;12.818;2023-03-25T04:12:41;8.80;24.30
1455;DHT22;721;48.168;12.818;2023-03-25T04:15:10;8.70;22.60
1455;DHT22;721;48.168;12.818;2023-03-25T04:17:37;8.70;23.90
1455;DHT22;721;48.168;12.818;2023-03-25T04:20:05;8.70;22.90
1455;DHT22;721;48.168;12.818;2023-03-25T04:22:34;8.70;22.40
1455;DHT22;721;48.168;12.818;2023-03-25T04:25:03;8.80;21.10
1455;DHT22;721;48.168;12.818;2023-03-25T04:27:31;8.80;22.10
1455;DHT22;721;48.168;12.818;2023-03-25T04:30:02;8.80;21.60
1455;DHT22;721;48.168;12.818;2023-03-25T04:32:29;8.80;21.10
1455;DHT22;721;48.168;12.818;2023-03-25T04:34:56;8.80;20.50
1455;DHT22;721;48.168;12.818;2023-03-25T04:37:23;8.80;19.70
1455;DHT22;721;48.168;12.818;2023-03-25T04:39:50;8.80;19.80
1455;DHT22;721;48.168;12.818;2023-03-25T04:42:18;8.80;19.20
1455;DHT22;721;48.168;12.818;2023-03-25T04:44:46;8.80;18.70
1455;DHT22;721;48.168;12.818;2023-03-25T04:47:13;8.80;18.70
1455;DHT22;721;48.168;12.818;2023-03-25T04:49:42;8.80;18.70
1455;DHT22;721;48.168;12.818;2023-03-25T04:52:10;8.80;18.70
1455;DHT22;721;48.168;12.818;2023-03-25T04:54:36;8.80;19.00
1455;DHT22;721;48.168;12.818;2023-03-25T04:57:04;8.80;18.70
1455;DHT22;721;48.168;12.818;2023-03-25T04:59:33;8.80;18.70
1455;DHT22;721;48.168;12.818;2023-03-25T05:02:02;8.80;19.10
1455;DHT22;721;48.168;12.818;2023-03-25T05:04:30;8.70;19.30
1455;DHT22;721;48.168;12.818;2023-03-25T05:06:57;8.70;19.70
1455;DHT22;721;48.168;12.818;2023-03-25T05:09:24;8.60;20.30
1455;DHT22;721;48.168;12.818;2023-03-25T05:11:52;8.60;19.90
1455;DHT22;721;48.168;12.818;2023-03-25T05:14:20;8.60;19.20
1455;DHT22;721;48.168;12.818;2023-03-25T05:16:47;8.60;19.70
1455;DHT22;721;48.168;12.818;2023-03-25T05:19:16;8.60;19.20
1455;DHT22;721;48.168;12.818;2023-03-25T05:21:45;8.60;19.30
1455;DHT22;721;48.168;12.818;2023-03-25T05:24:13;8.70;18.60
1455;DHT22;721;48.168;12.818;2023-03-25T05:26:41;8.60;19.00
1455;DHT22;721;48.168;12.818;2023-03-25T05:29:09;8.70;19.30
1455;DHT22;721;48.168;12.818;2023-03-25T05:31:38;8.60;19.50
1455;DHT22;721;48.168;12.818;2023-03-25T05:34:05;8.70;19.70
1455;DHT22;721;48.168;12.818;2023-03-25T05:36:34;8.70;19.60
1455;DHT22;721;48.168;12.818;2023-03-25T05:39:02;8.70;18.60
1455;DHT22;721;48.168;12.818;2023-03-25T05:41:30;8.70;18.60
1455;DHT22;721;48.168;12.818;2023-03-25T05:43:58;8.70;18.90
1455;DHT22;721;48.168;12.818;2023-03-25T05:46:26;8.70;17.70
1455;DHT22;721;48.168;12.818;2023-03-25T05:48:54;8.70;16.20
1455;DHT22;721;48.168;12.818;2023-03-25T05:51:23;8.70;17.80
1455;DHT22;721;48.168;12.818;2023-03-25T05:53:52;8.70;17.60
1455;DHT22;721;48.168;12.818;2023-03-25T05:56:21;8.70;17.30
1455;DHT22;721;48.168;12.818;2023-03-25T05:58:49;8.80;16.00
1455;DHT22;721;48.168;12.818;2023-03-25T06:01:18;8.80;15.70
1455;DHT22;721;48.168;12.818;2023-03-25T06:03:46;8.80;15.00
1455;DHT22;721;48.168;12.818;2023-03-25T06:06:12;8.80;15.20
1455;DHT22;721;48.168;12.818;2023-03-25T06:08:44;8.90;15.10
1455;DHT22;721;48.168;12.818;2023-03-25T06:11:12;8.90;13.90
1455;DHT22;721;48.168;12.818;2023-03-25T06:13:39;8.90;14.10
1455;DHT22;721;48.168;12.818;2023-03-25T06:16:07;8.90;13.80
1455;DHT22;721;48.168;12.818;2023-03-25T06:18:34;8.90;13.60
1455;DHT22;721;48.168;12.818;2023-03-25T06:21:02;8.90;13.60
1455;DHT22;721;48.168;12.818;2023-03-25T06:23:30;8.90;13.10
1455;DHT22;721;48.168;12.818;2023-03-25T06:26:00;8.90;13.50
1455;DHT22;721;48.168;12.818;2023-03-25T06:28:30;9.00;13.80
1455;DHT22;721;48.168;12.818;2023-03-25T06:30:58;9.00;13.10
1455;DHT22;721;48.168;12.818;2023-03-25T06:33:27;9.00;12.30
1455;DHT22;721;48.168;12.818;2023-03-25T06:35:54;9.00;13.50
1455;DHT22;721;48.168;12.818;2023-03-25T06:38:21;9.00;13.40
1455;DHT22;721;48.168;12.818;2023-03-25T06:40:48;9.00;12.30
1455;DHT22;721;48.168;12.818;2023-03-25T06:43:15;9.00;11.90
1455;DHT22;721;48.168;12.818;2023-03-25T06:45:43;9.00;12.60
1455;DHT22;721;48.168;12.818;2023-03-25T06:48:10;9.00;12.90
1455;DHT22;721;48.168;12.818;2023-03-25T06:50:37;9.10;10.70
1455;DHT22;721;48.168;12.818;2023-03-25T06:53:03;9.50;12.90
1455;DHT22;721;48.168;12.818;2023-03-25T06:55:30;9.30;11.30
1455;DHT22;721;48.168;12.818;2023-03-25T06:57:57;9.30;10.90
1455;DHT22;721;48.168;12.818;2023-03-25T07:00:24;9.40;10.40
1455;DHT22;721;48.168;12.818;2023-03-25T07:02:54;9.40;10.90
1455;DHT22;721;48.168;12.818;2023-03-25T07:05:21;9.30;9.50
1455;DHT22;721;48.168;12.818;2023-03-25T07:07:47;9.30;8.90
1455;DHT22;721;48.168;12.818;2023-03-25T07:10:14;9.30;10.70
1455;DHT22;721;48.168;12.818;2023-03-25T07:12:41;9.30;9.40
1455;DHT22;721;48.168;12.818;2023-03-25T07:15:08;9.40;10.00
1455;DHT22;721;48.168;12.818;2023-03-25T07:17:35;9.50;9.70
1455;DHT22;721;48.168;12.818;2023-03-25T07:20:05;9.60;8.20
1455;DHT22;721;48.168;12.818;2023-03-25T07:22:32;9.60;8.40
1455;DHT22;721;48.168;12.818;2023-03-25T07:24:59;9.60;6.80
1455;DHT22;721;48.168;12.818;2023-03-25T07:27:25;9.50;6.20
1455;DHT22;721;48.168;12.818;2023-03-25T07:29:52;9.50;6.90
1455;DHT22;721;48.168;12.818;2023-03-25T07:32:20;9.50;5.60
1455;DHT22;721;48.168;12.818;2023-03-25T07:34:46;9.60;8.00
1455;DHT22;721;48.168;12.818;2023-03-25T07:37:15;9.70;5.80
1455;DHT22;721;48.168;12.818;2023-03-25T07:39:41;9.80;4.70
1455;DHT22;721;48.168;12.818;2023-03-25T07:42:08;10.00;2.70
1455;DHT22;721;48.168;12.818;2023-03-25T07:44:35;10.10;2.50
1455;DHT22;721;48.168;12.818;2023-03-25T07:47:02;10.20;2.70
1455;DHT22;721;48.168;12.818;2023-03-25T07:49:29;10.20;1.00
1455;DHT22;721;48.168;12.818;2023-03-25T07:51:56;10.30;1.00
1455;DHT22;721;48.168;12.818;2023-03-25T07:54:24;10.50;1.00
1455;DHT22;721;48.168;12.818;2023-03-25T07:56:50;10.30;1.00
1455;DHT22;721;48.168;12.818;2023-03-25T07:59:19;10.30;1.00
1455;DHT22;721;48.168;12.818;2023-03-25T08:01:45;10.30;1.00
1455;DHT22;721;48.168;12.818;2023-03-25T08:04:12;10.50;1.00
1455;DHT22;721;48.168;12.818;2023-03-25T08:06:39;10.10;1.00
1455;DHT22;721;48.168;12.818;2023-03-25T08:09:06;9.90;1.00
1455;DHT22;721;48.168;12.818;2023-03-25T08:11:34;9.90;1.00
1455;DHT22;721;48.168;12.818;2023-03-25T08:14:01;10.00;1.00
1455;DHT22;721;48.168;12.818;2023-03-25T08:16:28;10.00;1.00
1455;DHT22;721;48.168;12.818;2023-03-25T08:18:55;9.90;1.00
1455;DHT22;721;48.168;12.818;2023-03-25T08:21:22;9.80;1.00
1455;DHT22;721;48.168;12.818;2023-03-25T08:23:52;9.80;1.00
1455;DHT22;721;48.168;12.818;2023-03-25T08:26:23;9.90;1.00
1455;DHT22;721;48.168;12.818;2023-03-25T08:28:51;9.90;1.00
1455;DHT22;721;48.168;12.818;2023-03-25T08:31:19;10.10;1.00
1455;DHT22;721;48.168;12.818;2023-03-25T08:33:46;10.40;1.00
1455;DHT22;721;48.168;12.818;2023-03-25T08:36:13;10.50;1.00
1455;DHT22;721;48.168;12.818;2023-03-25T08:38:44;10.70;1.00
1455;DHT22;721;48.168;12.818;2023-03-25T08:41:11;10.40;1.00
1455;DHT22;721;48.168;12.818;2023-03-25T08:43:38;10.30;1.00
1455;DHT22;721;48.168;12.818;2023-03-25T08:46:07;10.30;1.00
1455;DHT22;721;48.168;12.818;2023-03-25T08:48:34;10.20;1.00
1455;DHT22;721;48.168;12.818;2023-03-25T08:51:01;10.20;1.00
1455;DHT22;721;48.168;12.818;2023-03-25T08:53:28;10.30;1.00
1455;DHT22;721;48.168;12.818;2023-03-25T08:55:57;10.40;1.00
1455;DHT22;721;48.168;12.818;2023-03-25T08:58:24;10.50;1.00
1455;DHT22;721;48.168;12.818;2023-03-25T09:00:53;10.50;1.00
1455;DHT22;721;48.168;12.818;2023-03-25T09:03:22;10.50;1.00
1455;DHT22;721;48.168;12.818;2023-03-25T09:05:51;10.50;1.00
1455;DHT22;721;48.168;12.818;2023-03-25T09:08:18;10.40;1.00
1455;DHT22;721;48.168;12.818;2023-03-25T09:10:45;10.30;1.00
1455;DHT22;721;48.168;12.818;2023-03-25T09:13:12;10.30;1.00
1455;DHT22;721;48.168;12.818;2023-03-25T09:15:39;10.30;1.00
1455;DHT22;721;48.168;12.818;2023-03-25T09:18:06;10.40;1.00
1455;DHT22;721;48.168;12.818;2023-03-25T09:20:34;10.70;1.00
1455;DHT22;721;48.168;12.818;2023-03-25T09:23:01;10.80;1.00
1455;DHT22;721;48.168;12.818;2023-03-25T09:25:28;10.80;1.00
1455;DHT22;721;48.168;12.818;2023-03-25T09:27:55;11.00;1.00
1455;DHT22;721;48.168;12.818;2023-03-25T09:30:21;11.00;1.00
1455;DHT22;721;48.168;12.818;2023-03-25T09:32:48;10.90;1.00
1455;DHT22;721;48.168;12.818;2023-03-25T09:35:15;11.00;1.00
1455;DHT22;721;48.168;12.818;2023-03-25T09:37:43;11.00;1.00
1455;DHT22;721;48.168;12.818;2023-03-25T09:40:12;11.00;1.00
1455;DHT22;721;48.168;12.818;2023-03-25T09:42:49;11.00;1.00
1455;DHT22;721;48.168;12.818;2023-03-25T09:45:28;11.20;1.00
1455;DHT22;721;48.168;12.818;2023-03-25T09:48:00;11.30;1.00
1455;DHT22;721;48.168;12.818;2023-03-25T09:50:29;11.20;1.00
1455;DHT22;721;48.168;12.818;2023-03-25T09:53:00;11.50;1.00
1455;DHT22;721;48.168;12.818;2023-03-25T09:55:32;11.70;1.00
1455;DHT22;721;48.168;12.818;2023-03-25T09:58:03;11.90;1.00
1455;DHT22;721;48.168;12.818;2023-03-25T10:00:30;11.70;1.00
1455;DHT22;721;48.168;12.818;2023-03-25T10:03:13;11.50;1.00
1455;DHT22;721;48.168;12.818;2023-03-25T10:05:54;11.50;1.00
1455;DHT22;721;48.168;12.818;2023-03-25T10:08:32;11.60;1.00
1455;DHT22;721;48.168;12.818;2023-03-25T10:11:03;11.50;1.00
1455;DHT22;721;48.168;12.818;2023-03-25T10:13:36;11.30;1.00
1455;DHT22;721;48.168;12.818;2023-03-25T10:16:11;11.20;1.00
1455;DHT22;721;48.168;12.818;2023-03-25T10:19:01;11.20;1.00
1455;DHT22;721;48.168;12.818;2023-03-25T10:21:37;11.20;1.00
1455;DHT22;721;48.168;12.818;2023-03-25T10:24:16;11.20;1.00
1455;DHT22;721;48.168;12.818;2023-03-25T10:26:46;11.40;1.00
1455;DHT22;721;48.168;12.818;2023-03-25T10:29:16;11.30;1.00
1455;DHT22;721;48.168;12.818;2023-03-25T10:31:51;11.40;1.00
1455;DHT22;721;48.168;12.818;2023-03-25T10:34:22;11.50;1.00
1455;DHT22;721;48.168;12.818;2023-03-25T10:36:53;11.50;1.00
1455;DHT22;721;48.168;12.818;2023-03-25T10:39:28;11.50;1.00
1455;DHT22;721;48.168;12.818;2023-03-25T10:49:11;11.60;1.00
1455;DHT22;721;48.168;12.818;2023-03-25T10:51:39;11.80;1.00
1455;DHT22;721;48.168;12.818;2023-03-25T10:54:06;12.20;1.00
1455;DHT22;721;48.168;12.818;2023-03-25T10:56:40;12.40;1.00
1455;DHT22;721;48.168;12.818;2023-03-25T10:59:15;12.40;1.00
1455;DHT22;721;48.168;12.818;2023-03-25T11:01:43;12.40;1.00
1455;DHT22;721;48.168;12.818;2023-03-25T11:04:13;12.50;1.00
1455;DHT22;721;48.168;12.818;2023-03-25T11:06:41;12.60;1.00
1455;DHT22;721;48.168;12.818;2023-03-25T11:09:15;12.80;1.00
1455;DHT22;721;48.168;12.818;2023-03-25T11:11:44;12.80;1.00
1455;DHT22;721;48.168;12.818;2023-03-25T11:14:12;12.70;1.00
1455;DHT22;721;48.168;12.818;2023-03-25T11:16:43;12.50;1.00
1455;DHT22;721;48.168;12.818;2023-03-25T11:19:24;12.40;1.00
1455;DHT22;721;48.168;12.818;2023-03-25T11:21:53;12.30;1.00
1455;DHT22;721;48.168;12.818;2023-03-25T11:24:22;12.60;1.00
1455;DHT22;721;48.168;12.818;2023-03-25T11:26:54;12.80;1.00
1455;DHT22;721;48.168;12.818;2023-03-25T11:29:24;13.10;1.00
1455;DHT22;721;48.168;12.818;2023-03-25T11:31:56;13.20;1.00
1455;DHT22;721;48.168;12.818;2023-03-25T11:34:23;13.20;1.00
1455;DHT22;721;48.168;12.818;2023-03-25T11:36:53;12.90;1.00
1455;DHT22;721;48.168;12.818;2023-03-25T11:39:26;13.00;1.00
1455;DHT22;721;48.168;12.818;2023-03-25T11:41:56;13.10;1.00
1455;DHT22;721;48.168;12.818;2023-03-25T11:44:26;13.10;1.00
1455;DHT22;721;48.168;12.818;2023-03-25T11:46:55;13.20;1.00
1455;DHT22;721;48.168;12.818;2023-03-25T11:49:24;13.20;1.00
1455;DHT22;721;48.168;12.818;2023-03-25T11:51:57;13.10;1.00
1455;DHT22;721;48.168;12.818;2023-03-25T11:54:26;13.10;1.00
1455;DHT22;721;48.168;12.818;2023-03-25T11:56:55;13.20;1.00
1455;DHT22;721;48.168;12.818;2023-03-25T11:59:24;13.10;1.00
1455;DHT22;721;48.168;12.818;2023-03-25T12:01:59;13.00;1.00
1455;DHT22;721;48.168;12.818;2023-03-25T12:04:27;13.00;1.00
1455;DHT22;721;48.168;12.818;2023-03-25T12:06:57;13.20;1.00
1455;DHT22;721;48.168;12.818;2023-03-25T12:09:25;13.30;1.00
1455;DHT22;721;48.168;12.818;2023-03-25T12:12:23;13.60;1.00
1455;DHT22;721;48.168;12.818;2023-03-25T12:14:59;13.70;1.00
1455;DHT22;721;48.168;12.818;2023-03-25T12:17:37;13.80;1.00
1455;DHT22;721;48.168;12.818;2023-03-25T12:20:17;13.90;1.00
1455;DHT22;721;48.168;12.818;2023-03-25T12:22:57;13.90;1.00
1455;DHT22;721;48.168;12.818;2023-03-25T12:25:34;14.00;1.00
1455;DHT22;721;48.168;12.818;2023-03-25T12:30:59;13.30;1.00
1455;DHT22;721;48.168;12.818;2023-03-25T12:33:41;12.90;1.00
1455;DHT22;721;48.168;12.818;2023-03-25T12:36:19;12.60;1.00
1455;DHT22;721;48.168;12.818;2023-03-25T12:38:56;12.40;1.00
1455;DHT22;721;48.168;12.818;2023-03-25T12:41:29;12.30;1.00
1455;DHT22;721;48.168;12.818;2023-03-25T12:44:02;12.50;1.00
1455;DHT22;721;48.168;12.818;2023-03-25T12:46:47;12.60;1.00
1455;DHT22;721;48.168;12.818;2023-03-25T12:49:30;12.90;1.00
1455;DHT22;721;48.168;12.818;2023-03-25T12:52:04;13.10;1.00
1455;DHT22;721;48.168;12.818;2023-03-25T12:54:46;13.20;1.00
1455;DHT22;721;48.168;12.818;2023-03-25T12:57:27;13.20;1.00
1455;DHT22;721;48.168;12.818;2023-03-25T13:00:19;13.50;1.00
1455;DHT22;721;48.168;12.818;2023-03-25T13:03:13;13.50;1.00
1455;DHT22;721;48.168;12.818;2023-03-25T13:05:48;13.40;1.00
1455;DHT22;721;48.168;12.818;2023-03-25T13:08:18;13.40;1.00
1455;DHT22;721;48.168;12.818;2023-03-25T13:10:49;13.70;1.00
1455;DHT22;721;48.168;12.818;2023-03-25T13:13:24;13.90;1.00
1455;DHT22;721;48.168;12.818;2023-03-25T13:16:00;14.00;1.00
1455;DHT22;721;48.168;12.818;2023-03-25T13:18:32;13.80;1.00
1455;DHT22;721;48.168;12.818;2023-03-25T13:21:03;13.70;1.00
1455;DHT22;721;48.168;12.818;2023-03-25T13:23:33;13.70;1.00
1455;DHT22;721;48.168;12.818;2023-03-25T13:26:05;13.70;1.00
1455;DHT22;721;48.168;12.818;2023-03-25T13:28:37;13.80;1.00
1455;DHT22;721;48.168;12.818;2023-03-25T13:31:09;13.90;1.00
1455;DHT22;721;48.168;12.818;2023-03-25T13:33:42;13.80;1.00
1455;DHT22;721;48.168;12.818;2023-03-25T13:36:14;13.90;1.00
1455;DHT22;721;48.168;12.818;2023-03-25T13:38:47;14.00;1.00
1455;DHT22;721;48.168;12.818;2023-03-25T13:41:18;13.60;1.00
1455;DHT22;721;48.168;12.818;2023-03-25T13:43:54;13.00;1.00
1455;DHT22;721;48.168;12.818;2023-03-25T13:46:28;12.80;1.00
1455;DHT22;721;48.168;12.818;2023-03-25T13:49:00;12.80;1.00
1455;DHT22;721;48.168;12.818;2023-03-25T13:51:28;12.60;1.00
1455;DHT22;721;48.168;12.818;2023-03-25T13:53:58;12.40;1.00
1455;DHT22;721;48.168;12.818;2023-03-25T13:56:57;12.40;1.00
1455;DHT22;721;48.168;12.818;2023-03-25T14:02:46;12.50;1.00
1455;DHT22;721;48.168;12.818;2023-03-25T14:08:58;12.70;1.00
1455;DHT22;721;48.168;12.818;2023-03-25T14:11:35;12.90;1.00
1455;DHT22;721;48.168;12.818;2023-03-25T14:14:07;13.20;1.00
1455;DHT22;721;48.168;12.818;2023-03-25T14:16:38;13.30;1.00
1455;DHT22;721;48.168;12.818;2023-03-25T14:19:11;13.40;1.00
1455;DHT22;721;48.168;12.818;2023-03-25T14:21:41;13.20;1.00
1455;DHT22;721;48.168;12.818;2023-03-25T14:24:12;13.40;1.00
1455;DHT22;721;48.168;12.818;2023-03-25T14:26:46;13.50;1.00
1455;DHT22;721;48.168;12.818;2023-03-25T14:29:28;13.20;1.00
1455;DHT22;721;48.168;12.818;2023-03-25T14:32:01;13.20;1.00
1455;DHT22;721;48.168;12.818;2023-03-25T14:34:30;12.90;1.00
1455;DHT22;721;48.168;12.818;2023-03-25T14:37:17;13.10;1.00
1455;DHT22;721;48.168;12.818;2023-03-25T14:39:50;13.30;1.00
1455;DHT22;721;48.168;12.818;2023-03-25T14:42:28;13.40;1.00
1455;DHT22;721;48.168;12.818;2023-03-25T14:45:33;13.60;1.00
1455;DHT22;721;48.168;12.818;2023-03-25T14:48:05;13.90;1.00
1455;DHT22;721;48.168;12.818;2023-03-25T14:50:36;13.70;1.00
1455;DHT22;721;48.168;12.818;2023-03-25T14:53:09;13.70;1.00
1455;DHT22;721;48.168;12.818;2023-03-25T14:55:41;13.70;1.00
1455;DHT22;721;48.168;12.818;2023-03-25T14:58:17;13.50;1.00
1455;DHT22;721;48.168;12.818;2023-03-25T15:00:52;13.50;1.00
1455;DHT22;721;48.168;12.818;2023-03-25T15:03:20;13.40;1.00
1455;DHT22;721;48.168;12.818;2023-03-25T15:05:54;13.30;1.00
1455;DHT22;721;48.168;12.818;2023-03-25T15:08:25;13.00;1.00
1455;DHT22;721;48.168;12.818;2023-03-25T15:11:03;12.80;1.00
1455;DHT22;721;48.168;12.818;2023-03-25T15:13:33;12.90;1.00
1455;DHT22;721;48.168;12.818;2023-03-25T15:16:02;12.90;1.00
1455;DHT22;721;48.168;12.818;2023-03-25T15:18:58;12.90;1.00
1455;DHT22;721;48.168;12.818;2023-03-25T15:21:30;12.90;1.00
1455;DHT22;721;48.168;12.818;2023-03-25T15:24:04;12.80;1.00
1455;DHT22;721;48.168;12.818;2023-03-25T15:26:34;13.00;1.00
1455;DHT22;721;48.168;12.818;2023-03-25T15:29:24;13.00;1.00
1455;DHT22;721;48.168;12.818;2023-03-25T15:32:06;13.00;1.00
1455;DHT22;721;48.168;12.818;2023-03-25T15:34:44;13.00;1.00
1455;DHT22;721;48.168;12.818;2023-03-25T15:37:39;12.90;1.00
1455;DHT22;721;48.168;12.818;2023-03-25T15:40:23;12.80;1.00
1455;DHT22;721;48.168;12.818;2023-03-25T15:43:18;12.90;1.00
1455;DHT22;721;48.168;12.818;2023-03-25T15:49:05;12.90;1.00
1455;DHT22;721;48.168;12.818;2023-03-25T15:51:46;12.90;1.00
1455;DHT22;721;48.168;12.818;2023-03-25T15:54:27;12.90;1.00
1455;DHT22;721;48.168;12.818;2023-03-25T15:56:58;12.80;1.00
1455;DHT22;721;48.168;12.818;2023-03-25T15:59:36;12.60;1.00
1455;DHT22;721;48.168;12.818;2023-03-25T16:02:13;12.70;1.00
1455;DHT22;721;48.168;12.818;2023-03-25T16:04:45;12.50;1.00
1455;DHT22;721;48.168;12.818;2023-03-25T16:07:15;12.30;1.00
1455;DHT22;721;48.168;12.818;2023-03-25T16:09:46;12.20;1.00
1455;DHT22;721;48.168;12.818;2023-03-25T16:12:19;11.90;1.00
1455;DHT22;721;48.168;12.818;2023-03-25T16:14:46;11.80;1.00
1455;DHT22;721;48.168;12.818;2023-03-25T16:17:15;11.80;1.00
1455;DHT22;721;48.168;12.818;2023-03-25T16:19:45;11.70;1.00
1455;DHT22;721;48.168;12.818;2023-03-25T16:22:20;11.70;1.00
1455;DHT22;721;48.168;12.818;2023-03-25T16:24:53;11.70;1.00
1455;DHT22;721;48.168;12.818;2023-03-25T16:27:24;11.70;1.00
1455;DHT22;721;48.168;12.818;2023-03-25T16:29:53;11.70;1.00
1455;DHT22;721;48.168;12.818;2023-03-25T16:32:21;11.70;1.00
1455;DHT22;721;48.168;12.818;2023-03-25T16:34:49;11.70;1.00
1455;DHT22;721;48.168;12.818;2023-03-25T16:37:16;11.70;1.00
1455;DHT22;721;48.168;12.818;2023-03-25T16:39:48;11.70;1.00
1455;DHT22;721;48.168;12.818;2023-03-25T16:42:20;11.60;1.00
1455;DHT22;721;48.168;12.818;2023-03-25T16:44:49;11.50;1.00
1455;DHT22;721;48.168;12.818;2023-03-25T16:47:17;11.30;1.00
1455;DHT22;721;48.168;12.818;2023-03-25T16:49:46;10.90;1.00
1455;DHT22;721;48.168;12.818;2023-03-25T16:52:15;10.20;1.00
1455;DHT22;721;48.168;12.818;2023-03-25T16:54:46;9.80;11.70
1455;DHT22;721;48.168;12.818;2023-03-25T16:57:36;9.60;16.50
1455;DHT22;721;48.168;12.818;2023-03-25T17:00:12;9.50;19.10
1455;DHT22;721;48.168;12.818;2023-03-25T17:02:42;9.50;18.20
1455;DHT22;721;48.168;12.818;2023-03-25T17:05:13;9.50;17.30
1455;DHT22;721;48.168;12.818;2023-03-25T17:07:41;9.50;17.30
1455;DHT22;721;48.168;12.818;2023-03-25T17:10:17;9.50;17.80
1455;DHT22;721;48.168;12.818;2023-03-25T17:12:52;9.60;18.20
1455;DHT22;721;48.168;12.818;2023-03-25T17:15:19;9.70;17.00